FNKU

Kuito Airport

Kuito, Angola
METAR FNKU 171400Z 06007KT 9999 TS BKN030 24/22 Q1017
Observed Flight Rules
Dec-17 @ 14:00 UTC (28 minutes ago) Marginal Visual Flight Rules
Wind Visibility Clouds Conditions
60° at 7 knots 10,000+ meters
  • Broken at 3,000' AGL
  • Thunderstorm
Temperatures Readings
Current 24°C / 75°F
Dewpoint 22°C / 72°F
Humidity 89%
Altimeter 30.03" Hg
Pressure 1017 hPa
Elevation 1699
METAR FNKU 171400Z 06007KT 9999 TS BKN030 24/22 Q1017
Observed Flight Rules
Dec-17 @ 14:00 UTC
(28 minutes ago)
MVFR
Wind Visibility
60° at 7 knots 10,000+ meters
Clouds
  • Broken at 3,000' AGL
Conditions
  • Thunderstorm
Temperature Dewpoint
24°C / 75°F 22°C / 72°F
Humidity Altimeter Pressure
89% 30.03" Hg 1017 hPa